sensor_id;sensor_type;location;lat;lon;timestamp;temperature;humidity
45115;DHT22;30877;43.706;10.780;2022-10-31T00:01:26;16.20;96.70
45115;DHT22;30877;43.706;10.780;2022-10-31T00:03:54;16.20;96.70
45115;DHT22;30877;43.706;10.780;2022-10-31T00:06:21;16.10;96.70
45115;DHT22;30877;43.706;10.780;2022-10-31T00:08:53;16.10;96.70
45115;DHT22;30877;43.706;10.780;2022-10-31T00:11:21;16.10;96.70
45115;DHT22;30877;43.706;10.780;2022-10-31T00:13:50;16.10;96.70
45115;DHT22;30877;43.706;10.780;2022-10-31T00:16:20;16.00;96.70
45115;DHT22;30877;43.706;10.780;2022-10-31T00:18:49;16.00;96.70
45115;DHT22;30877;43.706;10.780;2022-10-31T00:21:16;16.00;96.70
45115;DHT22;30877;43.706;10.780;2022-10-31T00:23:45;15.90;96.70
45115;DHT22;30877;43.706;10.780;2022-10-31T00:26:13;15.90;96.70
45115;DHT22;30877;43.706;10.780;2022-10-31T00:28:42;16.00;96.70
45115;DHT22;30877;43.706;10.780;2022-10-31T00:31:12;16.10;96.70
45115;DHT22;30877;43.706;10.780;2022-10-31T00:33:40;15.90;96.70
45115;DHT22;30877;43.706;10.780;2022-10-31T00:36:11;15.70;96.70
45115;DHT22;30877;43.706;10.780;2022-10-31T00:38:40;15.70;96.70
45115;DHT22;30877;43.706;10.780;2022-10-31T00:41:08;15.90;96.70
45115;DHT22;30877;43.706;10.780;2022-10-31T00:43:35;15.90;96.70
45115;DHT22;30877;43.706;10.780;2022-10-31T00:46:03;15.90;96.70
45115;DHT22;30877;43.706;10.780;2022-10-31T00:48:32;15.90;96.70
45115;DHT22;30877;43.706;10.780;2022-10-31T00:51:00;16.00;96.70
45115;DHT22;30877;43.706;10.780;2022-10-31T00:53:28;16.00;96.70
45115;DHT22;30877;43.706;10.780;2022-10-31T00:55:56;15.90;96.70
45115;DHT22;30877;43.706;10.780;2022-10-31T00:58:24;15.80;96.70
45115;DHT22;30877;43.706;10.780;2022-10-31T01:00:52;15.60;96.70
45115;DHT22;30877;43.706;10.780;2022-10-31T01:03:23;15.70;96.70
45115;DHT22;30877;43.706;10.780;2022-10-31T01:06:01;15.60;96.70
45115;DHT22;30877;43.706;10.780;2022-10-31T01:08:32;15.60;96.70
45115;DHT22;30877;43.706;10.780;2022-10-31T01:11:06;15.50;96.70
45115;DHT22;30877;43.706;10.780;2022-10-31T01:13:35;15.40;96.70
45115;DHT22;30877;43.706;10.780;2022-10-31T01:16:04;15.30;96.70
45115;DHT22;30877;43.706;10.780;2022-10-31T01:18:33;15.30;96.70
45115;DHT22;30877;43.706;10.780;2022-10-31T01:21:04;15.40;96.70
45115;DHT22;30877;43.706;10.780;2022-10-31T01:23:33;15.50;96.70
45115;DHT22;30877;43.706;10.780;2022-10-31T01:26:09;15.50;96.70
45115;DHT22;30877;43.706;10.780;2022-10-31T01:28:44;15.50;96.70
45115;DHT22;30877;43.706;10.780;2022-10-31T01:31:15;15.40;96.70
45115;DHT22;30877;43.706;10.780;2022-10-31T01:33:43;15.30;96.70
45115;DHT22;30877;43.706;10.780;2022-10-31T01:36:16;15.40;96.70
45115;DHT22;30877;43.706;10.780;2022-10-31T01:38:44;15.50;96.70
45115;DHT22;30877;43.706;10.780;2022-10-31T01:41:14;15.50;96.70
45115;DHT22;30877;43.706;10.780;2022-10-31T01:43:48;15.50;96.70
45115;DHT22;30877;43.706;10.780;2022-10-31T01:46:19;15.40;96.70
45115;DHT22;30877;43.706;10.780;2022-10-31T01:48:48;15.40;96.70
45115;DHT22;30877;43.706;10.780;2022-10-31T01:51:22;15.50;96.70
45115;DHT22;30877;43.706;10.780;2022-10-31T01:53:52;15.50;96.70
45115;DHT22;30877;43.706;10.780;2022-10-31T01:56:23;15.40;96.70
45115;DHT22;30877;43.706;10.780;2022-10-31T01:58:51;15.30;96.70
45115;DHT22;30877;43.706;10.780;2022-10-31T02:01:21;15.20;96.70
45115;DHT22;30877;43.706;10.780;2022-10-31T02:03:49;15.30;96.70
45115;DHT22;30877;43.706;10.780;2022-10-31T02:06:26;15.40;96.70
45115;DHT22;30877;43.706;10.780;2022-10-31T02:08:55;15.50;96.70
45115;DHT22;30877;43.706;10.780;2022-10-31T02:11:25;15.40;96.70
45115;DHT22;30877;43.706;10.780;2022-10-31T02:13:53;15.40;96.70
45115;DHT22;30877;43.706;10.780;2022-10-31T02:16:22;15.30;96.70
45115;DHT22;30877;43.706;10.780;2022-10-31T02:18:50;15.20;96.70
45115;DHT22;30877;43.706;10.780;2022-10-31T02:21:24;15.20;96.70
45115;DHT22;30877;43.706;10.780;2022-10-31T02:24:17;15.10;96.70
45115;DHT22;30877;43.706;10.780;2022-10-31T02:26:57;15.20;96.70
45115;DHT22;30877;43.706;10.780;2022-10-31T02:29:56;15.20;96.70
45115;DHT22;30877;43.706;10.780;2022-10-31T02:32:38;15.20;96.70
45115;DHT22;30877;43.706;10.780;2022-10-31T02:35:11;15.10;96.70
45115;DHT22;30877;43.706;10.780;2022-10-31T02:37:47;15.10;96.70
45115;DHT22;30877;43.706;10.780;2022-10-31T02:40:21;15.10;96.70
45115;DHT22;30877;43.706;10.780;2022-10-31T02:43:14;15.00;96.70
45115;DHT22;30877;43.706;10.780;2022-10-31T02:45:48;15.10;96.70
45115;DHT22;30877;43.706;10.780;2022-10-31T02:48:20;15.00;96.70
45115;DHT22;30877;43.706;10.780;2022-10-31T02:50:53;15.00;96.70
45115;DHT22;30877;43.706;10.780;2022-10-31T02:53:23;14.90;96.70
45115;DHT22;30877;43.706;10.780;2022-10-31T02:55:59;14.80;96.70
45115;DHT22;30877;43.706;10.780;2022-10-31T02:58:31;14.70;96.70
45115;DHT22;30877;43.706;10.780;2022-10-31T03:01:23;14.80;96.70
45115;DHT22;30877;43.706;10.780;2022-10-31T03:04:09;14.70;96.70
45115;DHT22;30877;43.706;10.780;2022-10-31T03:06:45;14.70;96.70
45115;DHT22;30877;43.706;10.780;2022-10-31T03:09:23;14.60;96.70
45115;DHT22;30877;43.706;10.780;2022-10-31T03:11:58;14.60;96.70
45115;DHT22;30877;43.706;10.780;2022-10-31T03:14:40;14.70;96.70
45115;DHT22;30877;43.706;10.780;2022-10-31T03:17:13;14.60;96.70
45115;DHT22;30877;43.706;10.780;2022-10-31T03:19:46;14.60;96.70
45115;DHT22;30877;43.706;10.780;2022-10-31T03:22:17;14.60;96.70
45115;DHT22;30877;43.706;10.780;2022-10-31T03:24:48;14.60;96.70
45115;DHT22;30877;43.706;10.780;2022-10-31T03:27:18;14.40;96.70
45115;DHT22;30877;43.706;10.780;2022-10-31T03:29:50;14.30;96.70
45115;DHT22;30877;43.706;10.780;2022-10-31T03:32:22;14.20;96.70
45115;DHT22;30877;43.706;10.780;2022-10-31T03:34:56;14.30;96.70
45115;DHT22;30877;43.706;10.780;2022-10-31T03:37:27;14.30;96.70
45115;DHT22;30877;43.706;10.780;2022-10-31T03:39:59;14.20;96.70
45115;DHT22;30877;43.706;10.780;2022-10-31T03:42:30;14.30;96.70
45115;DHT22;30877;43.706;10.780;2022-10-31T03:45:02;14.40;96.70
45115;DHT22;30877;43.706;10.780;2022-10-31T03:47:31;14.40;96.70
45115;DHT22;30877;43.706;10.780;2022-10-31T03:50:01;14.40;96.70
45115;DHT22;30877;43.706;10.780;2022-10-31T03:52:35;14.40;96.70
45115;DHT22;30877;43.706;10.780;2022-10-31T03:55:07;14.40;96.70
45115;DHT22;30877;43.706;10.780;2022-10-31T03:57:42;14.40;96.70
45115;DHT22;30877;43.706;10.780;2022-10-31T04:00:13;14.40;96.70
45115;DHT22;30877;43.706;10.780;2022-10-31T04:02:50;14.30;96.70
45115;DHT22;30877;43.706;10.780;2022-10-31T04:05:21;14.30;96.70
45115;DHT22;30877;43.706;10.780;2022-10-31T04:07:53;14.30;96.70
45115;DHT22;30877;43.706;10.780;2022-10-31T04:10:23;14.30;96.70
45115;DHT22;30877;43.706;10.780;2022-10-31T04:13:03;14.30;96.70
45115;DHT22;30877;43.706;10.780;2022-10-31T04:15:41;14.40;96.70
45115;DHT22;30877;43.706;10.780;2022-10-31T04:18:10;14.30;96.70
45115;DHT22;30877;43.706;10.780;2022-10-31T04:20:41;14.40;96.70
45115;DHT22;30877;43.706;10.780;2022-10-31T04:23:17;14.40;96.70
45115;DHT22;30877;43.706;10.780;2022-10-31T04:25:46;14.40;96.70
45115;DHT22;30877;43.706;10.780;2022-10-31T04:28:14;14.40;96.70
45115;DHT22;30877;43.706;10.780;2022-10-31T04:30:43;14.30;96.70
45115;DHT22;30877;43.706;10.780;2022-10-31T04:33:11;14.10;96.70
45115;DHT22;30877;43.706;10.780;2022-10-31T04:35:40;13.90;96.70
45115;DHT22;30877;43.706;10.780;2022-10-31T04:38:09;13.90;96.70
45115;DHT22;30877;43.706;10.780;2022-10-31T04:40:38;13.80;96.70
45115;DHT22;30877;43.706;10.780;2022-10-31T04:43:41;13.80;96.70
45115;DHT22;30877;43.706;10.780;2022-10-31T04:46:09;13.70;96.70
45115;DHT22;30877;43.706;10.780;2022-10-31T04:48:37;13.60;96.70
45115;DHT22;30877;43.706;10.780;2022-10-31T04:51:08;13.60;96.70
45115;DHT22;30877;43.706;10.780;2022-10-31T04:53:36;13.60;96.70
45115;DHT22;30877;43.706;10.780;2022-10-31T04:56:23;13.70;96.70
45115;DHT22;30877;43.706;10.780;2022-10-31T04:58:56;13.70;96.70
45115;DHT22;30877;43.706;10.780;2022-10-31T05:01:25;13.70;96.70
45115;DHT22;30877;43.706;10.780;2022-10-31T05:03:54;13.60;96.70
45115;DHT22;30877;43.706;10.780;2022-10-31T05:06:24;13.60;96.70
45115;DHT22;30877;43.706;10.780;2022-10-31T05:08:52;13.50;96.70
45115;DHT22;30877;43.706;10.780;2022-10-31T05:11:20;13.60;96.70
45115;DHT22;30877;43.706;10.780;2022-10-31T05:13:48;13.60;96.70
45115;DHT22;30877;43.706;10.780;2022-10-31T05:16:34;13.70;96.70
45115;DHT22;30877;43.706;10.780;2022-10-31T05:19:28;13.60;96.70
45115;DHT22;30877;43.706;10.780;2022-10-31T05:22:18;13.50;96.70
45115;DHT22;30877;43.706;10.780;2022-10-31T05:24:46;13.40;96.70
45115;DHT22;30877;43.706;10.780;2022-10-31T05:27:14;13.50;96.70
45115;DHT22;30877;43.706;10.780;2022-10-31T05:29:42;13.50;96.70
45115;DHT22;30877;43.706;10.780;2022-10-31T05:32:10;13.60;96.70
45115;DHT22;30877;43.706;10.780;2022-10-31T05:34:56;13.70;96.70
45115;DHT22;30877;43.706;10.780;2022-10-31T05:37:52;13.80;96.70
45115;DHT22;30877;43.706;10.780;2022-10-31T05:40:21;13.70;96.70
45115;DHT22;30877;43.706;10.780;2022-10-31T05:42:51;13.70;96.70
45115;DHT22;30877;43.706;10.780;2022-10-31T05:45:21;13.70;96.70
45115;DHT22;30877;43.706;10.780;2022-10-31T05:47:59;13.60;96.70
45115;DHT22;30877;43.706;10.780;2022-10-31T05:50:54;13.70;96.70
45115;DHT22;30877;43.706;10.780;2022-10-31T05:53:24;13.70;96.70
45115;DHT22;30877;43.706;10.780;2022-10-31T05:55:51;13.70;96.70
45115;DHT22;30877;43.706;10.780;2022-10-31T05:58:21;13.70;96.70
45115;DHT22;30877;43.706;10.780;2022-10-31T06:01:03;13.80;96.70
45115;DHT22;30877;43.706;10.780;2022-10-31T06:03:31;13.80;96.70
45115;DHT22;30877;43.706;10.780;2022-10-31T06:06:01;13.80;96.70
45115;DHT22;30877;43.706;10.780;2022-10-31T06:08:42;13.80;96.70
45115;DHT22;30877;43.706;10.780;2022-10-31T06:11:15;13.70;96.70
45115;DHT22;30877;43.706;10.780;2022-10-31T06:14:01;13.60;96.70
45115;DHT22;30877;43.706;10.780;2022-10-31T06:16:55;13.60;96.70
45115;DHT22;30877;43.706;10.780;2022-10-31T06:19:55;13.50;96.70
45115;DHT22;30877;43.706;10.780;2022-10-31T06:22:26;13.60;96.70
45115;DHT22;30877;43.706;10.780;2022-10-31T06:24:56;13.60;96.70
45115;DHT22;30877;43.706;10.780;2022-10-31T06:27:30;13.70;96.70
45115;DHT22;30877;43.706;10.780;2022-10-31T06:30:06;13.80;96.70
45115;DHT22;30877;43.706;10.780;2022-10-31T06:32:36;13.80;96.70
45115;DHT22;30877;43.706;10.780;2022-10-31T06:35:07;13.80;96.70
45115;DHT22;30877;43.706;10.780;2022-10-31T06:37:36;13.60;96.70
45115;DHT22;30877;43.706;10.780;2022-10-31T06:40:25;13.50;96.70
45115;DHT22;30877;43.706;10.780;2022-10-31T06:43:29;13.70;96.70
45115;DHT22;30877;43.706;10.780;2022-10-31T06:46:20;13.90;96.70
45115;DHT22;30877;43.706;10.780;2022-10-31T06:49:05;13.90;96.70
45115;DHT22;30877;43.706;10.780;2022-10-31T06:51:41;13.90;96.70
45115;DHT22;30877;43.706;10.780;2022-10-31T06:54:09;13.90;96.70
45115;DHT22;30877;43.706;10.780;2022-10-31T06:56:39;13.90;96.70
45115;DHT22;30877;43.706;10.780;2022-10-31T06:59:08;14.00;96.70
45115;DHT22;30877;43.706;10.780;2022-10-31T07:01:57;13.90;96.70
45115;DHT22;30877;43.706;10.780;2022-10-31T07:04:25;13.90;96.70
45115;DHT22;30877;43.706;10.780;2022-10-31T07:06:53;13.90;96.70
45115;DHT22;30877;43.706;10.780;2022-10-31T07:09:21;14.00;96.70
45115;DHT22;30877;43.706;10.780;2022-10-31T07:11:52;14.00;96.70
45115;DHT22;30877;43.706;10.780;2022-10-31T07:14:20;14.10;96.70
45115;DHT22;30877;43.706;10.780;2022-10-31T07:16:49;14.20;96.70
45115;DHT22;30877;43.706;10.780;2022-10-31T07:19:23;14.30;96.70
45115;DHT22;30877;43.706;10.780;2022-10-31T07:21:51;14.30;96.70
45115;DHT22;30877;43.706;10.780;2022-10-31T07:24:19;14.30;96.70
45115;DHT22;30877;43.706;10.780;2022-10-31T07:27:08;14.40;96.70
45115;DHT22;30877;43.706;10.780;2022-10-31T07:29:36;14.30;96.70
45115;DHT22;30877;43.706;10.780;2022-10-31T07:32:05;14.30;96.70
45115;DHT22;30877;43.706;10.780;2022-10-31T07:34:35;14.40;96.70
45115;DHT22;30877;43.706;10.780;2022-10-31T07:37:32;14.50;96.70
45115;DHT22;30877;43.706;10.780;2022-10-31T07:40:00;14.50;96.70
45115;DHT22;30877;43.706;10.780;2022-10-31T07:42:36;14.70;96.70
45115;DHT22;30877;43.706;10.780;2022-10-31T07:45:06;14.80;96.70
45115;DHT22;30877;43.706;10.780;2022-10-31T07:48:04;14.80;96.70
45115;DHT22;30877;43.706;10.780;2022-10-31T07:50:50;14.90;96.70
45115;DHT22;30877;43.706;10.780;2022-10-31T07:53:53;15.00;96.70
45115;DHT22;30877;43.706;10.780;2022-10-31T07:56:24;15.10;96.70
45115;DHT22;30877;43.706;10.780;2022-10-31T07:58:54;15.10;96.70
45115;DHT22;30877;43.706;10.780;2022-10-31T08:01:22;15.20;96.70
45115;DHT22;30877;43.706;10.780;2022-10-31T08:04:10;15.20;96.70
45115;DHT22;30877;43.706;10.780;2022-10-31T08:07:04;15.30;96.70
45115;DHT22;30877;43.706;10.780;2022-10-31T08:09:35;15.40;96.70
45115;DHT22;30877;43.706;10.780;2022-10-31T08:12:14;15.50;96.70
45115;DHT22;30877;43.706;10.780;2022-10-31T08:14:44;15.50;96.70
45115;DHT22;30877;43.706;10.780;2022-10-31T08:17:14;15.60;96.70
45115;DHT22;30877;43.706;10.780;2022-10-31T08:19:55;15.60;96.70
45115;DHT22;30877;43.706;10.780;2022-10-31T08:22:36;15.70;96.70
45115;DHT22;30877;43.706;10.780;2022-10-31T08:25:10;15.70;96.70
45115;DHT22;30877;43.706;10.780;2022-10-31T08:27:39;15.70;96.70
45115;DHT22;30877;43.706;10.780;2022-10-31T08:30:25;15.80;96.70
45115;DHT22;30877;43.706;10.780;2022-10-31T08:33:15;15.80;96.70
45115;DHT22;30877;43.706;10.780;2022-10-31T08:36:19;15.90;96.70
45115;DHT22;30877;43.706;10.780;2022-10-31T08:38:56;16.00;96.70
45115;DHT22;30877;43.706;10.780;2022-10-31T08:41:30;16.00;96.70
45115;DHT22;30877;43.706;10.780;2022-10-31T08:43:59;16.10;96.70
45115;DHT22;30877;43.706;10.780;2022-10-31T08:46:29;16.10;96.70
45115;DHT22;30877;43.706;10.780;2022-10-31T08:48:57;16.20;96.70
45115;DHT22;30877;43.706;10.780;2022-10-31T08:51:25;16.30;96.70
45115;DHT22;30877;43.706;10.780;2022-10-31T08:53:55;16.40;96.70
45115;DHT22;30877;43.706;10.780;2022-10-31T08:56:35;16.50;96.70
45115;DHT22;30877;43.706;10.780;2022-10-31T08:59:10;16.60;96.70
45115;DHT22;30877;43.706;10.780;2022-10-31T09:02:07;16.70;96.70
45115;DHT22;30877;43.706;10.780;2022-10-31T09:04:35;16.80;96.70
45115;DHT22;30877;43.706;10.780;2022-10-31T09:07:04;16.90;96.70
45115;DHT22;30877;43.706;10.780;2022-10-31T09:09:48;17.10;96.70
45115;DHT22;30877;43.706;10.780;2022-10-31T09:12:18;17.10;96.70
45115;DHT22;30877;43.706;10.780;2022-10-31T09:15:01;17.20;96.70
45115;DHT22;30877;43.706;10.780;2022-10-31T09:17:39;17.40;96.70
45115;DHT22;30877;43.706;10.780;2022-10-31T09:20:22;17.40;96.70
45115;DHT22;30877;43.706;10.780;2022-10-31T09:22:56;17.50;96.70
45115;DHT22;30877;43.706;10.780;2022-10-31T09:25:25;17.50;96.70
45115;DHT22;30877;43.706;10.780;2022-10-31T09:28:14;17.60;96.70
45115;DHT22;30877;43.706;10.780;2022-10-31T09:30:46;17.80;96.70
45115;DHT22;30877;43.706;10.780;2022-10-31T09:33:23;17.90;96.70
45115;DHT22;30877;43.706;10.780;2022-10-31T09:36:11;17.90;96.70
45115;DHT22;30877;43.706;10.780;2022-10-31T09:38:41;18.10;96.70
45115;DHT22;30877;43.706;10.780;2022-10-31T09:41:19;18.20;96.70
45115;DHT22;30877;43.706;10.780;2022-10-31T09:44:00;18.30;96.70
45115;DHT22;30877;43.706;10.780;2022-10-31T09:46:46;18.40;96.70
45115;DHT22;30877;43.706;10.780;2022-10-31T09:49:36;18.60;96.70
45115;DHT22;30877;43.706;10.780;2022-10-31T09:52:11;18.70;96.70
45115;DHT22;30877;43.706;10.780;2022-10-31T09:54:43;18.70;96.70
45115;DHT22;30877;43.706;10.780;2022-10-31T09:57:14;18.70;96.70
45115;DHT22;30877;43.706;10.780;2022-10-31T09:59:47;18.80;96.70
45115;DHT22;30877;43.706;10.780;2022-10-31T10:02:21;18.90;96.70
45115;DHT22;30877;43.706;10.780;2022-10-31T10:04:57;18.90;96.70
45115;DHT22;30877;43.706;10.780;2022-10-31T10:07:34;19.00;96.70
45115;DHT22;30877;43.706;10.780;2022-10-31T10:10:44;19.10;96.70
45115;DHT22;30877;43.706;10.780;2022-10-31T10:13:59;19.30;96.70
45115;DHT22;30877;43.706;10.780;2022-10-31T10:16:43;19.40;96.70
45115;DHT22;30877;43.706;10.780;2022-10-31T10:19:30;19.40;96.70
45115;DHT22;30877;43.706;10.780;2022-10-31T10:22:08;19.50;96.70
45115;DHT22;30877;43.706;10.780;2022-10-31T10:24:54;19.70;96.70
45115;DHT22;30877;43.706;10.780;2022-10-31T10:27:30;19.80;96.70
45115;DHT22;30877;43.706;10.780;2022-10-31T10:30:12;19.80;96.70
45115;DHT22;30877;43.706;10.780;2022-10-31T10:32:44;19.90;96.70
45115;DHT22;30877;43.706;10.780;2022-10-31T10:35:23;20.00;96.70
45115;DHT22;30877;43.706;10.780;2022-10-31T10:37:57;20.10;96.70
45115;DHT22;30877;43.706;10.780;2022-10-31T10:40:28;20.20;96.70
45115;DHT22;30877;43.706;10.780;2022-10-31T10:43:01;20.40;96.70
45115;DHT22;30877;43.706;10.780;2022-10-31T10:46:17;20.50;96.70
45115;DHT22;30877;43.706;10.780;2022-10-31T10:49:22;20.60;96.70
45115;DHT22;30877;43.706;10.780;2022-10-31T10:51:56;20.60;96.70
45115;DHT22;30877;43.706;10.780;2022-10-31T10:54:59;20.60;96.70
45115;DHT22;30877;43.706;10.780;2022-10-31T10:57:37;20.70;96.70
45115;DHT22;30877;43.706;10.780;2022-10-31T11:00:18;20.90;96.70
45115;DHT22;30877;43.706;10.780;2022-10-31T11:02:47;21.00;96.70
45115;DHT22;30877;43.706;10.780;2022-10-31T11:05:23;21.20;96.70
45115;DHT22;30877;43.706;10.780;2022-10-31T11:07:51;21.20;96.70
45115;DHT22;30877;43.706;10.780;2022-10-31T11:10:20;21.20;96.70
45115;DHT22;30877;43.706;10.780;2022-10-31T11:13:04;21.30;96.70
45115;DHT22;30877;43.706;10.780;2022-10-31T11:15:35;21.50;96.70
45115;DHT22;30877;43.706;10.780;2022-10-31T11:18:04;21.60;96.70
45115;DHT22;30877;43.706;10.780;2022-10-31T11:20:34;21.70;96.70
45115;DHT22;30877;43.706;10.780;2022-10-31T11:23:10;21.80;96.70
45115;DHT22;30877;43.706;10.780;2022-10-31T11:25:50;21.90;96.70
45115;DHT22;30877;43.706;10.780;2022-10-31T11:28:18;22.00;96.70
45115;DHT22;30877;43.706;10.780;2022-10-31T11:30:48;22.20;96.70
45115;DHT22;30877;43.706;10.780;2022-10-31T11:33:21;22.30;96.70
45115;DHT22;30877;43.706;10.780;2022-10-31T11:35:50;22.40;96.70
45115;DHT22;30877;43.706;10.780;2022-10-31T11:38:29;22.60;96.70
45115;DHT22;30877;43.706;10.780;2022-10-31T11:41:03;22.80;96.70
45115;DHT22;30877;43.706;10.780;2022-10-31T11:43:34;22.90;96.70
45115;DHT22;30877;43.706;10.780;2022-10-31T11:46:14;22.90;96.70
45115;DHT22;30877;43.706;10.780;2022-10-31T11:48:46;23.00;96.70
45115;DHT22;30877;43.706;10.780;2022-10-31T11:51:21;23.10;96.70
45115;DHT22;30877;43.706;10.780;2022-10-31T11:53:55;23.20;96.70
45115;DHT22;30877;43.706;10.780;2022-10-31T11:56:39;23.30;96.70
45115;DHT22;30877;43.706;10.780;2022-10-31T11:59:18;23.40;96.70
45115;DHT22;30877;43.706;10.780;2022-10-31T12:01:48;23.60;96.70
45115;DHT22;30877;43.706;10.780;2022-10-31T12:04:17;23.60;96.70
45115;DHT22;30877;43.706;10.780;2022-10-31T12:06:46;23.60;96.70
45115;DHT22;30877;43.706;10.780;2022-10-31T12:09:21;23.50;96.70
45115;DHT22;30877;43.706;10.780;2022-10-31T12:12:15;23.60;96.70
45115;DHT22;30877;43.706;10.780;2022-10-31T12:14:51;23.60;96.70
45115;DHT22;30877;43.706;10.780;2022-10-31T12:17:28;23.70;96.70
45115;DHT22;30877;43.706;10.780;2022-10-31T12:20:02;23.70;96.70
45115;DHT22;30877;43.706;10.780;2022-10-31T12:22:41;23.70;96.70
45115;DHT22;30877;43.706;10.780;2022-10-31T12:25:19;23.70;96.70
45115;DHT22;30877;43.706;10.780;2022-10-31T12:28:03;23.70;96.70
45115;DHT22;30877;43.706;10.780;2022-10-31T12:30:46;23.90;96.70
45115;DHT22;30877;43.706;10.780;2022-10-31T12:33:41;23.90;96.70
45115;DHT22;30877;43.706;10.780;2022-10-31T12:36:29;24.00;96.70
45115;DHT22;30877;43.706;10.780;2022-10-31T12:39:24;24.10;96.70
45115;DHT22;30877;43.706;10.780;2022-10-31T12:41:55;24.10;96.70
45115;DHT22;30877;43.706;10.780;2022-10-31T12:44:52;24.10;96.70
45115;DHT22;30877;43.706;10.780;2022-10-31T12:47:52;24.00;96.70
45115;DHT22;30877;43.706;10.780;2022-10-31T12:50:30;23.90;96.70
45115;DHT22;30877;43.706;10.780;2022-10-31T12:53:17;23.90;96.70
45115;DHT22;30877;43.706;10.780;2022-10-31T12:55:56;23.90;96.70
45115;DHT22;30877;43.706;10.780;2022-10-31T12:58:29;24.10;96.70
45115;DHT22;30877;43.706;10.780;2022-10-31T13:01:07;24.20;96.70
45115;DHT22;30877;43.706;10.780;2022-10-31T13:03:44;24.30;96.70
45115;DHT22;30877;43.706;10.780;2022-10-31T13:06:18;24.30;96.70
45115;DHT22;30877;43.706;10.780;2022-10-31T13:08:51;24.30;96.70
45115;DHT22;30877;43.706;10.780;2022-10-31T13:11:22;24.50;96.70
45115;DHT22;30877;43.706;10.780;2022-10-31T13:13:58;24.50;96.70
45115;DHT22;30877;43.706;10.780;2022-10-31T13:16:29;24.60;96.70
45115;DHT22;30877;43.706;10.780;2022-10-31T13:19:08;24.60;96.70
45115;DHT22;30877;43.706;10.780;2022-10-31T13:21:44;24.60;96.70
45115;DHT22;30877;43.706;10.780;2022-10-31T13:24:15;24.60;96.70
45115;DHT22;30877;43.706;10.780;2022-10-31T13:26:47;24.70;96.70
45115;DHT22;30877;43.706;10.780;2022-10-31T13:29:20;24.60;96.70
45115;DHT22;30877;43.706;10.780;2022-10-31T13:31:54;24.60;96.70
45115;DHT22;30877;43.706;10.780;2022-10-31T13:34:26;24.60;96.70
45115;DHT22;30877;43.706;10.780;2022-10-31T13:37:01;24.60;96.70
45115;DHT22;30877;43.706;10.780;2022-10-31T13:39:45;24.50;96.70
45115;DHT22;30877;43.706;10.780;2022-10-31T13:42:25;24.60;96.70
45115;DHT22;30877;43.706;10.780;2022-10-31T13:44:53;24.60;96.70
45115;DHT22;30877;43.706;10.780;2022-10-31T13:47:24;24.70;96.70
45115;DHT22;30877;43.706;10.780;2022-10-31T13:50:04;24.70;96.70
45115;DHT22;30877;43.706;10.780;2022-10-31T13:52:32;24.70;96.70
45115;DHT22;30877;43.706;10.780;2022-10-31T13:55:00;24.70;96.70
45115;DHT22;30877;43.706;10.780;2022-10-31T13:57:38;24.70;96.70
45115;DHT22;30877;43.706;10.780;2022-10-31T14:00:23;24.70;96.70
45115;DHT22;30877;43.706;10.780;2022-10-31T14:02:56;24.70;96.70
45115;DHT22;30877;43.706;10.780;2022-10-31T14:05:27;24.70;96.70
45115;DHT22;30877;43.706;10.780;2022-10-31T14:07:59;24.60;96.70
45115;DHT22;30877;43.706;10.780;2022-10-31T14:10:30;24.60;96.70
45115;DHT22;30877;43.706;10.780;2022-10-31T14:13:05;24.50;96.70
45115;DHT22;30877;43.706;10.780;2022-10-31T14:15:34;24.40;96.70
45115;DHT22;30877;43.706;10.780;2022-10-31T14:18:06;24.40;96.70
45115;DHT22;30877;43.706;10.780;2022-10-31T14:20:56;24.40;96.70
45115;DHT22;30877;43.706;10.780;2022-10-31T14:23:37;24.30;96.70
45115;DHT22;30877;43.706;10.780;2022-10-31T14:26:18;24.20;96.70
45115;DHT22;30877;43.706;10.780;2022-10-31T14:28:47;24.20;96.70
45115;DHT22;30877;43.706;10.780;2022-10-31T14:31:34;24.20;96.70
45115;DHT22;30877;43.706;10.780;2022-10-31T14:34:19;24.20;96.70
45115;DHT22;30877;43.706;10.780;2022-10-31T14:37:11;24.20;96.70
45115;DHT22;30877;43.706;10.780;2022-10-31T14:39:52;24.10;96.70
45115;DHT22;30877;43.706;10.780;2022-10-31T14:42:34;24.20;96.70
45115;DHT22;30877;43.706;10.780;2022-10-31T14:45:15;24.20;96.70
45115;DHT22;30877;43.706;10.780;2022-10-31T14:47:52;24.20;96.70
45115;DHT22;30877;43.706;10.780;2022-10-31T14:50:34;24.10;96.70
45115;DHT22;30877;43.706;10.780;2022-10-31T14:53:08;24.10;96.70
45115;DHT22;30877;43.706;10.780;2022-10-31T14:55:43;24.10;96.70
45115;DHT22;30877;43.706;10.780;2022-10-31T14:58:17;24.10;96.70
45115;DHT22;30877;43.706;10.780;2022-10-31T15:00:46;24.00;96.70
45115;DHT22;30877;43.706;10.780;2022-10-31T15:03:16;24.10;96.70
45115;DHT22;30877;43.706;10.780;2022-10-31T15:05:49;24.30;96.70
45115;DHT22;30877;43.706;10.780;2022-10-31T15:08:35;25.00;96.70
45115;DHT22;30877;43.706;10.780;2022-10-31T15:11:09;25.70;96.70
45115;DHT22;30877;43.706;10.780;2022-10-31T15:13:45;26.00;96.70
45115;DHT22;30877;43.706;10.780;2022-10-31T15:16:15;25.70;96.70
45115;DHT22;30877;43.706;10.780;2022-10-31T15:19:02;25.50;96.70
45115;DHT22;30877;43.706;10.780;2022-10-31T15:21:32;25.00;96.70
45115;DHT22;30877;43.706;10.780;2022-10-31T15:24:01;24.70;96.70
45115;DHT22;30877;43.706;10.780;2022-10-31T15:26:34;24.50;96.70
45115;DHT22;30877;43.706;10.780;2022-10-31T15:29:10;24.30;96.70
45115;DHT22;30877;43.706;10.780;2022-10-31T15:31:38;24.10;96.70
45115;DHT22;30877;43.706;10.780;2022-10-31T15:34:14;23.90;96.70
45115;DHT22;30877;43.706;10.780;2022-10-31T15:36:48;23.60;96.70
45115;DHT22;30877;43.706;10.780;2022-10-31T15:39:16;23.50;96.70
45115;DHT22;30877;43.706;10.780;2022-10-31T15:41:49;23.30;96.70
45115;DHT22;30877;43.706;10.780;2022-10-31T15:44:23;23.10;96.70
45115;DHT22;30877;43.706;10.780;2022-10-31T15:46:56;23.00;96.70
45115;DHT22;30877;43.706;10.780;2022-10-31T15:49:32;22.80;96.70
45115;DHT22;30877;43.706;10.780;2022-10-31T15:52:14;22.70;96.70
45115;DHT22;30877;43.706;10.780;2022-10-31T15:54:47;22.60;96.70
45115;DHT22;30877;43.706;10.780;2022-10-31T15:57:16;22.50;96.70
45115;DHT22;30877;43.706;10.780;2022-10-31T15:59:47;22.40;96.70
45115;DHT22;30877;43.706;10.780;2022-10-31T16:02:19;22.30;96.70
45115;DHT22;30877;43.706;10.780;2022-10-31T16:04:53;22.10;96.70
45115;DHT22;30877;43.706;10.780;2022-10-31T16:07:23;22.00;96.70